createdAt,value
2017-10-15T00:01:03.649Z,99.99
2017-10-15T00:02:13.067Z,99.99
2017-10-15T00:03:22.157Z,99.99
2017-10-15T00:04:31.334Z,99.99
2017-10-15T00:05:40.255Z,99.99
2017-10-15T00:06:49.230Z,99.99
2017-10-15T00:07:58.069Z,99.99
2017-10-15T00:09:07.066Z,99.99
2017-10-15T00:10:15.908Z,99.99
2017-10-15T00:11:24.788Z,99.99
2017-10-15T00:12:33.968Z,99.99
2017-10-15T00:13:43.310Z,99.99
2017-10-15T00:14:52.151Z,99.99
2017-10-15T00:16:00.991Z,99.99
2017-10-15T00:17:09.877Z,99.99
2017-10-15T00:18:18.831Z,99.99
2017-10-15T00:19:28.282Z,99.99
2017-10-15T00:20:37.170Z,99.99
2017-10-15T00:21:46.117Z,99.99
2017-10-15T00:22:54.957Z,99.99
2017-10-15T00:24:03.807Z,99.99
2017-10-15T00:25:12.649Z,99.99
2017-10-15T00:26:21.917Z,99.99
2017-10-15T00:27:30.936Z,99.99
2017-10-15T00:28:39.781Z,99.99
2017-10-15T00:29:49.094Z,99.99
2017-10-15T00:30:57.963Z,99.99
2017-10-15T00:32:06.893Z,99.99
2017-10-15T00:33:15.769Z,99.99
2017-10-15T00:34:24.609Z,99.99
2017-10-15T00:35:33.796Z,99.99
2017-10-15T00:36:43.055Z,99.99
2017-10-15T00:37:52.235Z,99.99
2017-10-15T00:39:01.428Z,99.99
2017-10-15T00:40:10.347Z,99.99
2017-10-15T00:41:19.298Z,99.99
2017-10-15T00:42:28.473Z,99.99
2017-10-15T00:43:37.646Z,99.99
2017-10-15T00:44:46.502Z,99.99
2017-10-15T00:45:55.367Z,99.99
2017-10-15T00:47:04.215Z,99.99
2017-10-15T00:48:13.531Z,99.99
2017-10-15T00:49:22.464Z,99.99
2017-10-15T00:50:31.305Z,99.99
2017-10-15T00:51:40.168Z,99.99
2017-10-15T00:52:49.089Z,99.99
2017-10-15T00:53:57.985Z,99.99
2017-10-15T00:55:07.013Z,99.99
2017-10-15T00:56:15.884Z,99.99
2017-10-15T00:57:24.726Z,99.99
2017-10-15T00:58:33.633Z,99.99
2017-10-15T00:59:42.572Z,99.99
2017-10-15T01:00:51.413Z,99.99
2017-10-15T01:02:00.325Z,99.99
2017-10-15T01:03:09.170Z,99.99
2017-10-15T01:04:18.023Z,99.99
2017-10-15T01:05:27.427Z,99.99
2017-10-15T01:06:36.310Z,99.99
2017-10-15T01:07:45.496Z,99.99
2017-10-15T01:08:54.434Z,99.99
2017-10-15T01:10:03.309Z,99.99
2017-10-15T01:11:12.147Z,99.99
2017-10-15T01:12:21.043Z,99.99
2017-10-15T01:13:30.074Z,99.99
2017-10-15T01:14:39.507Z,99.99
2017-10-15T01:15:48.348Z,99.99
2017-10-15T01:16:57.417Z,99.99
2017-10-15T01:18:06.352Z,99.99
2017-10-15T01:19:15.258Z,99.99
2017-10-15T01:20:24.147Z,99.99
2017-10-15T01:21:32.983Z,99.99
2017-10-15T01:22:41.828Z,99.99
2017-10-15T01:23:51.359Z,99.99
2017-10-15T01:25:00.495Z,99.99
2017-10-15T01:26:09.344Z,99.99
2017-10-15T01:27:18.253Z,99.99
2017-10-15T01:28:27.677Z,99.99
2017-10-15T01:29:36.607Z,99.99
2017-10-15T01:30:45.634Z,99.99
2017-10-15T01:31:54.516Z,99.99
2017-10-15T01:33:03.707Z,99.99
2017-10-15T01:34:12.946Z,99.99
2017-10-15T01:35:21.986Z,99.99
2017-10-15T01:36:31.156Z,99.99
2017-10-15T01:37:40.002Z,99.99
2017-10-15T01:38:48.979Z,99.99
2017-10-15T01:39:57.822Z,99.99
2017-10-15T01:41:06.660Z,99.99
2017-10-15T01:42:15.693Z,99.99
2017-10-15T01:43:24.535Z,99.99
2017-10-15T01:44:33.818Z,99.99
2017-10-15T01:45:42.754Z,99.99
2017-10-15T01:46:51.601Z,99.99
2017-10-15T01:48:00.452Z,99.99
2017-10-15T01:49:09.863Z,99.99
2017-10-15T01:50:19.042Z,99.99
2017-10-15T01:51:27.882Z,99.99
2017-10-15T01:52:36.724Z,99.99
2017-10-15T01:53:45.563Z,99.99
2017-10-15T01:54:54.562Z,99.99
2017-10-15T01:56:03.462Z,99.99
2017-10-15T01:57:12.461Z,99.99
2017-10-15T01:58:21.307Z,99.99
2017-10-15T01:59:30.647Z,99.99
2017-10-15T02:00:39.484Z,99.99
2017-10-15T02:01:48.331Z,99.99
2017-10-15T02:02:57.247Z,99.99
2017-10-15T02:04:06.086Z,99.99
2017-10-15T02:05:14.970Z,99.99
2017-10-15T02:06:23.828Z,99.99
2017-10-15T02:07:32.676Z,99.99
2017-10-15T02:08:41.877Z,99.99
2017-10-15T02:09:50.725Z,99.99
2017-10-15T02:10:59.893Z,99.99
2017-10-15T02:12:08.756Z,99.99
2017-10-15T02:13:17.779Z,99.99
2017-10-15T02:14:26.645Z,99.99
2017-10-15T02:15:35.490Z,99.99
2017-10-15T02:16:44.328Z,99.99
2017-10-15T02:17:53.170Z,99.99
2017-10-15T02:19:02.008Z,99.99
2017-10-15T02:20:10.854Z,99.99
2017-10-15T02:21:19.707Z,99.99
2017-10-15T02:22:28.901Z,99.99
2017-10-15T02:23:38.060Z,99.99
2017-10-15T02:24:47.328Z,99.99
2017-10-15T02:25:56.176Z,99.99
2017-10-15T02:27:05.498Z,99.99
2017-10-15T02:28:14.776Z,99.99
2017-10-15T02:29:23.615Z,99.99
2017-10-15T02:30:32.463Z,99.99
2017-10-15T02:31:41.300Z,99.99
2017-10-15T02:32:50.140Z,99.99
2017-10-15T02:33:58.991Z,99.99
2017-10-15T02:35:07.827Z,99.99
2017-10-15T02:36:16.660Z,99.99
2017-10-15T02:37:25.517Z,99.99
2017-10-15T02:38:34.689Z,99.99
2017-10-15T02:39:43.537Z,99.99
2017-10-15T02:40:52.541Z,99.99
2017-10-15T02:42:01.522Z,99.99
2017-10-15T02:43:10.486Z,99.99
2017-10-15T02:44:19.355Z,99.99
2017-10-15T02:45:28.558Z,99.99
2017-10-15T02:46:37.399Z,99.99
2017-10-15T02:47:46.242Z,99.99
2017-10-15T02:48:55.078Z,99.99
2017-10-15T02:50:03.917Z,99.99
2017-10-15T02:51:12.761Z,99.99
2017-10-15T02:52:21.599Z,99.99
2017-10-15T02:53:30.441Z,99.99
2017-10-15T02:54:39.284Z,99.99
2017-10-15T02:55:48.458Z,99.99
2017-10-15T02:56:57.294Z,99.99
2017-10-15T02:58:06.143Z,99.99
2017-10-15T02:59:14.979Z,99.99
2017-10-15T03:00:23.817Z,99.99
2017-10-15T03:01:32.659Z,99.99
2017-10-15T03:02:41.496Z,99.99
2017-10-15T03:03:50.345Z,99.99
2017-10-15T03:04:59.180Z,99.99
2017-10-15T03:06:08.017Z,99.99
2017-10-15T03:07:16.861Z,99.99
2017-10-15T03:08:25.701Z,99.99
2017-10-15T03:09:34.535Z,99.99
2017-10-15T03:10:43.381Z,99.99
2017-10-15T03:11:52.215Z,99.99
2017-10-15T03:13:01.056Z,99.99
2017-10-15T03:14:09.900Z,99.99
2017-10-15T03:15:18.734Z,99.99
2017-10-15T03:16:27.572Z,99.99
2017-10-15T03:17:36.419Z,99.99
2017-10-15T03:18:45.257Z,99.99
2017-10-15T03:19:54.097Z,99.99
2017-10-15T03:21:02.936Z,99.99
2017-10-15T03:22:11.772Z,99.99
2017-10-15T03:23:20.620Z,99.99
2017-10-15T03:24:29.458Z,99.99
2017-10-15T03:25:38.301Z,99.99
2017-10-15T03:26:47.135Z,99.99
2017-10-15T03:27:55.982Z,99.99
2017-10-15T03:29:04.818Z,99.99
2017-10-15T03:30:13.666Z,99.99
2017-10-15T03:31:22.511Z,99.99
2017-10-15T03:32:31.348Z,99.99
2017-10-15T03:33:40.187Z,99.99
2017-10-15T03:34:49.028Z,99.99
2017-10-15T03:35:57.863Z,99.99
2017-10-15T03:37:06.709Z,99.99
2017-10-15T03:38:15.560Z,99.99
2017-10-15T03:39:24.391Z,99.99
2017-10-15T03:40:33.277Z,99.99
2017-10-15T03:41:42.109Z,99.99
2017-10-15T03:42:50.945Z,99.99
2017-10-15T03:43:59.781Z,99.99
2017-10-15T03:45:08.624Z,99.99
2017-10-15T03:46:17.464Z,99.99
2017-10-15T03:47:26.293Z,99.99
2017-10-15T03:48:35.129Z,99.99
2017-10-15T03:49:43.967Z,99.99
2017-10-15T03:50:52.799Z,99.99
2017-10-15T03:52:01.971Z,99.99
2017-10-15T03:53:10.803Z,99.99
2017-10-15T03:54:19.641Z,99.99
2017-10-15T03:55:28.481Z,99.99
2017-10-15T03:56:37.657Z,99.99
2017-10-15T03:57:46.491Z,99.99
2017-10-15T03:58:55.333Z,99.99
2017-10-15T04:00:04.165Z,99.99
2017-10-15T04:01:12.996Z,99.99
2017-10-15T04:02:21.835Z,99.99
2017-10-15T04:03:30.671Z,99.99
2017-10-15T04:04:39.506Z,99.99
2017-10-15T04:05:48.712Z,99.99
2017-10-15T04:06:57.540Z,99.99
2017-10-15T04:08:06.370Z,99.99
2017-10-15T04:09:15.205Z,99.99
2017-10-15T04:10:24.042Z,99.99
2017-10-15T04:11:32.884Z,99.99
2017-10-15T04:12:41.721Z,99.99
2017-10-15T04:13:50.555Z,99.99
2017-10-15T04:14:59.386Z,99.99
2017-10-15T04:16:08.228Z,99.99
2017-10-15T04:17:17.063Z,99.99
2017-10-15T04:18:25.897Z,99.99
2017-10-15T04:19:34.731Z,99.99
2017-10-15T04:20:43.565Z,99.99
2017-10-15T04:21:52.405Z,99.99
2017-10-15T04:23:01.242Z,99.99
2017-10-15T04:24:10.084Z,99.99
2017-10-15T04:25:18.917Z,99.99
2017-10-15T04:26:27.751Z,99.99
2017-10-15T04:27:36.587Z,99.99
2017-10-15T04:28:45.422Z,99.99
2017-10-15T04:29:54.263Z,99.99
2017-10-15T04:31:03.097Z,99.99
2017-10-15T04:32:11.952Z,99.99
2017-10-15T04:33:20.764Z,99.99
2017-10-15T04:34:29.603Z,99.99
2017-10-15T04:35:38.437Z,99.99
2017-10-15T04:36:47.273Z,99.99
2017-10-15T04:37:56.112Z,99.99
2017-10-15T04:39:04.945Z,99.99
2017-10-15T04:40:13.783Z,99.99
2017-10-15T04:41:22.622Z,99.99
2017-10-15T04:42:31.460Z,99.99
2017-10-15T04:43:40.292Z,99.99
2017-10-15T04:44:49.127Z,99.99
2017-10-15T04:45:57.962Z,99.99
2017-10-15T04:47:06.799Z,99.99
2017-10-15T04:48:15.638Z,99.99
2017-10-15T04:49:24.473Z,99.99
2017-10-15T04:50:33.305Z,99.99
2017-10-15T04:51:42.158Z,99.99
2017-10-15T04:52:50.983Z,99.99
2017-10-15T04:53:59.822Z,99.99
2017-10-15T04:55:08.655Z,99.99
2017-10-15T04:56:17.490Z,99.99
2017-10-15T04:57:26.324Z,99.99
2017-10-15T04:58:35.164Z,99.99
2017-10-15T04:59:44.002Z,99.99
2017-10-15T05:00:52.832Z,99.99
2017-10-15T05:02:01.666Z,99.99
2017-10-15T05:03:10.506Z,99.99
2017-10-15T05:04:19.343Z,99.99
2017-10-15T05:05:28.175Z,99.99
2017-10-15T05:06:37.008Z,99.99
2017-10-15T05:07:45.843Z,99.99
2017-10-15T05:08:54.677Z,99.99
2017-10-15T05:10:03.516Z,99.99
2017-10-15T05:11:12.351Z,99.99
2017-10-15T05:12:21.183Z,99.99
2017-10-15T05:13:30.022Z,99.99
2017-10-15T05:14:38.851Z,99.99
2017-10-15T05:15:48.027Z,99.99
2017-10-15T05:16:56.859Z,99.99
2017-10-15T05:18:05.698Z,99.99
2017-10-15T05:19:14.531Z,99.99
2017-10-15T05:20:23.374Z,99.99
2017-10-15T05:21:32.214Z,99.99
2017-10-15T05:22:41.043Z,99.99
2017-10-15T05:23:49.877Z,99.99
2017-10-15T05:24:58.715Z,99.99
2017-10-15T05:26:07.552Z,99.99
2017-10-15T05:27:16.390Z,99.99
2017-10-15T05:28:25.573Z,99.99
2017-10-15T05:29:34.405Z,99.99
2017-10-15T05:30:43.237Z,99.99
2017-10-15T05:31:52.077Z,99.99
2017-10-15T05:33:00.918Z,99.99
2017-10-15T05:34:09.754Z,99.99
2017-10-15T05:35:18.588Z,99.99
2017-10-15T05:36:27.418Z,99.99
2017-10-15T05:37:36.254Z,99.99
2017-10-15T05:38:45.096Z,99.99
2017-10-15T05:39:53.933Z,99.99
2017-10-15T05:41:02.768Z,99.99
2017-10-15T05:42:11.608Z,99.99
2017-10-15T05:43:20.771Z,99.99
2017-10-15T05:44:29.605Z,99.99
2017-10-15T05:45:38.442Z,99.99
2017-10-15T05:46:47.276Z,99.99
2017-10-15T05:47:56.109Z,99.99
2017-10-15T05:49:04.944Z,99.99
2017-10-15T05:50:13.779Z,99.99
2017-10-15T05:51:22.620Z,99.99
2017-10-15T05:52:31.454Z,99.99
2017-10-15T05:53:40.290Z,99.99
2017-10-15T05:54:49.127Z,99.99
2017-10-15T05:55:58.298Z,99.99
2017-10-15T05:57:07.131Z,99.99
2017-10-15T05:58:15.970Z,99.99
2017-10-15T05:59:24.810Z,99.99
2017-10-15T06:00:33.647Z,99.99
2017-10-15T06:01:42.480Z,99.99
2017-10-15T06:02:51.320Z,99.99
2017-10-15T06:04:00.496Z,99.99
2017-10-15T06:05:09.333Z,99.99
2017-10-15T06:06:18.166Z,99.99
2017-10-15T06:07:27.005Z,99.99
2017-10-15T06:08:35.835Z,99.99
2017-10-15T06:09:44.673Z,99.99
2017-10-15T06:10:53.513Z,99.99
2017-10-15T06:12:02.348Z,99.99
2017-10-15T06:13:11.185Z,99.99
2017-10-15T06:14:20.019Z,99.99
2017-10-15T06:15:28.859Z,99.99
2017-10-15T06:16:37.694Z,99.99
2017-10-15T06:17:46.530Z,99.99
2017-10-15T06:18:55.364Z,99.99
2017-10-15T06:20:04.198Z,99.99
2017-10-15T06:21:13.041Z,99.99
2017-10-15T06:22:21.871Z,99.99
2017-10-15T06:23:30.707Z,99.99
2017-10-15T06:24:39.538Z,99.99
2017-10-15T06:25:48.373Z,99.99
2017-10-15T06:26:57.209Z,99.99
2017-10-15T06:28:06.047Z,99.99
2017-10-15T06:29:14.884Z,99.99
2017-10-15T06:30:23.716Z,99.99
2017-10-15T06:31:32.552Z,99.99
2017-10-15T06:32:41.389Z,99.99
2017-10-15T06:33:50.225Z,99.99
2017-10-15T06:34:59.069Z,99.99
2017-10-15T06:36:07.898Z,99.99
2017-10-15T06:37:16.733Z,99.99
2017-10-15T06:38:25.565Z,99.99
2017-10-15T06:39:34.403Z,99.99
2017-10-15T06:40:43.240Z,99.99
2017-10-15T06:41:52.084Z,99.99
2017-10-15T06:43:00.911Z,99.99
2017-10-15T06:44:09.747Z,99.99
2017-10-15T06:45:18.582Z,99.99
2017-10-15T06:46:27.424Z,99.99
2017-10-15T06:47:36.260Z,99.99
2017-10-15T06:48:45.095Z,99.99
2017-10-15T06:49:53.928Z,99.99
2017-10-15T06:51:02.764Z,99.99
2017-10-15T06:52:11.599Z,99.99
2017-10-15T06:53:20.437Z,99.99
2017-10-15T06:54:29.271Z,99.99
2017-10-15T06:55:38.109Z,99.99
2017-10-15T06:56:46.942Z,99.99
2017-10-15T06:57:55.779Z,99.99
2017-10-15T06:59:04.615Z,99.99
2017-10-15T07:00:13.449Z,99.99
2017-10-15T07:01:22.294Z,99.99
2017-10-15T07:02:31.125Z,99.99
2017-10-15T07:03:39.957Z,99.99
2017-10-15T07:04:48.795Z,99.99
2017-10-15T07:05:57.628Z,99.99
2017-10-15T07:07:06.465Z,99.99
2017-10-15T07:08:15.305Z,99.99
2017-10-15T07:09:24.476Z,99.99
2017-10-15T07:10:33.310Z,99.99
2017-10-15T07:11:42.144Z,99.99
2017-10-15T07:12:50.980Z,99.99
2017-10-15T07:13:59.818Z,99.99
2017-10-15T07:15:08.659Z,99.99
2017-10-15T07:16:17.500Z,99.99
2017-10-15T07:17:26.338Z,99.99
2017-10-15T07:18:35.178Z,99.99
2017-10-15T07:19:44.009Z,99.99
2017-10-15T07:20:52.846Z,99.99
2017-10-15T07:22:01.679Z,99.99
2017-10-15T07:23:10.518Z,99.99
2017-10-15T07:24:19.347Z,99.99
2017-10-15T07:25:28.190Z,99.99
2017-10-15T07:26:37.024Z,99.99
2017-10-15T07:27:45.857Z,99.99
2017-10-15T07:28:54.702Z,99.99
2017-10-15T07:30:03.539Z,99.99
2017-10-15T07:31:12.372Z,99.99
2017-10-15T07:32:21.213Z,99.99
2017-10-15T07:33:30.043Z,99.99
2017-10-15T07:34:38.881Z,99.99
2017-10-15T07:35:47.713Z,99.99
2017-10-15T07:36:56.555Z,99.99
2017-10-15T07:38:05.726Z,99.99
2017-10-15T07:39:14.567Z,99.99
2017-10-15T07:40:23.399Z,99.99
2017-10-15T07:41:32.230Z,99.99
2017-10-15T07:42:41.069Z,99.99
2017-10-15T07:43:49.907Z,99.99
2017-10-15T07:44:58.747Z,99.99
2017-10-15T07:46:07.585Z,99.99
2017-10-15T07:47:16.421Z,99.99
2017-10-15T07:48:25.258Z,99.99
2017-10-15T07:49:34.090Z,99.99
2017-10-15T07:50:42.928Z,99.99
2017-10-15T07:51:51.760Z,99.99
2017-10-15T07:53:00.600Z,99.99
2017-10-15T07:54:09.440Z,99.99
2017-10-15T07:55:18.272Z,99.99
2017-10-15T07:56:27.113Z,99.99
2017-10-15T07:57:35.969Z,99.99
2017-10-15T07:58:44.783Z,99.99
2017-10-15T07:59:53.620Z,99.99
2017-10-15T08:01:02.804Z,99.99
2017-10-15T08:02:11.637Z,99.99
2017-10-15T08:03:20.476Z,99.99
2017-10-15T08:04:29.320Z,99.99
2017-10-15T08:05:38.177Z,99.99
2017-10-15T08:06:46.989Z,99.99
2017-10-15T08:07:55.830Z,99.99
2017-10-15T08:09:04.670Z,99.99
2017-10-15T08:10:13.511Z,99.99
2017-10-15T08:11:22.349Z,99.99
2017-10-15T08:12:31.181Z,99.99
2017-10-15T08:13:40.021Z,99.99
2017-10-15T08:14:48.852Z,99.99
2017-10-15T08:15:57.689Z,99.99
2017-10-15T08:17:06.525Z,99.99
2017-10-15T08:18:15.364Z,99.99
2017-10-15T08:19:24.195Z,99.99
2017-10-15T08:20:33.036Z,99.99
2017-10-15T08:21:41.874Z,99.99
2017-10-15T08:22:50.715Z,99.99
2017-10-15T08:23:59.551Z,99.99
2017-10-15T08:25:08.386Z,99.99
2017-10-15T08:26:17.222Z,99.99
2017-10-15T08:27:26.061Z,99.99
2017-10-15T08:28:34.898Z,99.99
2017-10-15T08:29:43.736Z,99.99
2017-10-15T08:30:52.574Z,99.99
2017-10-15T08:32:01.756Z,99.99
2017-10-15T08:33:10.594Z,99.82
2017-10-15T08:34:19.432Z,99.82
2017-10-15T08:35:28.267Z,99.82
2017-10-15T08:36:37.104Z,99.82
2017-10-15T08:37:45.942Z,99.99
2017-10-15T08:38:54.782Z,99.63
2017-10-15T08:40:03.632Z,99.73
2017-10-15T08:41:12.455Z,99.63
2017-10-15T08:42:21.290Z,99.73
2017-10-15T08:43:30.128Z,99.44
2017-10-15T08:44:38.964Z,99.44
2017-10-15T08:45:47.809Z,99.34
2017-10-15T08:46:56.639Z,99.53
2017-10-15T08:48:05.473Z,99.39
2017-10-15T08:49:14.310Z,99.34
2017-10-15T08:50:23.154Z,99.68
2017-10-15T08:51:31.990Z,99.1
2017-10-15T08:52:40.832Z,99.49
2017-10-15T08:53:49.662Z,99.29
2017-10-15T08:54:58.496Z,99.2
2017-10-15T08:56:07.345Z,99.68
2017-10-15T08:57:16.171Z,99.68
2017-10-15T08:58:25.011Z,99.68
2017-10-15T08:59:33.851Z,99.01
2017-10-15T09:00:43.023Z,99.01
2017-10-15T09:01:51.866Z,99.49
2017-10-15T09:03:00.698Z,98.82
2017-10-15T09:04:09.533Z,98.91
2017-10-15T09:05:18.371Z,98.91
2017-10-15T09:06:27.208Z,99.01
2017-10-15T09:07:36.047Z,98.82
2017-10-15T09:08:44.892Z,98.53
2017-10-15T09:09:53.732Z,98.62
2017-10-15T09:11:02.566Z,98.82
2017-10-15T09:12:11.407Z,98.33
2017-10-15T09:13:20.245Z,98.82
2017-10-15T09:14:29.079Z,98.91
2017-10-15T09:15:37.912Z,98.53
2017-10-15T09:16:46.749Z,98.24
2017-10-15T09:17:55.925Z,98.05
2017-10-15T09:19:04.762Z,98.19
2017-10-15T09:20:13.601Z,98.43
2017-10-15T09:21:22.437Z,98
2017-10-15T09:22:31.277Z,98.1
2017-10-15T09:23:40.108Z,97.95
2017-10-15T09:24:49.285Z,97.81
2017-10-15T09:25:58.126Z,97.42
2017-10-15T09:27:06.960Z,97.91
2017-10-15T09:28:15.796Z,97.42
2017-10-15T09:29:24.631Z,97.24
2017-10-15T09:30:33.474Z,96.75
2017-10-15T09:31:42.308Z,97.24
2017-10-15T09:32:51.148Z,96.85
2017-10-15T09:33:59.994Z,96.94
2017-10-15T09:35:08.834Z,96.47
2017-10-15T09:36:17.675Z,96.56
2017-10-15T09:37:26.513Z,96.75
2017-10-15T09:38:35.353Z,96.94
2017-10-15T09:39:44.191Z,96.27
2017-10-15T09:40:53.034Z,96.27
2017-10-15T09:42:01.880Z,96.37
2017-10-15T09:43:10.712Z,95.94
2017-10-15T09:44:19.869Z,96.08
2017-10-15T09:45:28.703Z,96.32
2017-10-15T09:46:37.546Z,96.13
2017-10-15T09:47:46.386Z,95.75
2017-10-15T09:48:55.226Z,95.65
2017-10-15T09:50:04.065Z,95.75
2017-10-15T09:51:12.908Z,95.45
2017-10-15T09:52:21.741Z,95.75
2017-10-15T09:53:30.581Z,95.84
2017-10-15T09:54:39.423Z,95.26
2017-10-15T09:55:48.281Z,95.55
2017-10-15T09:56:57.154Z,95.26
2017-10-15T09:58:05.990Z,94.78
2017-10-15T09:59:14.834Z,95.07
2017-10-15T10:00:24.113Z,94.78
2017-10-15T10:01:32.990Z,94.88
2017-10-15T10:02:41.937Z,94.59
2017-10-15T10:03:50.770Z,94.21
2017-10-15T10:04:59.946Z,94.4
2017-10-15T10:06:08.795Z,94.4
2017-10-15T10:07:17.628Z,94.49
2017-10-15T10:08:26.470Z,94.59
2017-10-15T10:09:35.656Z,94.21
2017-10-15T10:10:44.827Z,93.82
2017-10-15T10:11:53.667Z,93.68
2017-10-15T10:13:02.576Z,94.11
2017-10-15T10:14:11.418Z,93.49
2017-10-15T10:15:20.263Z,93.19
2017-10-15T10:16:29.559Z,93.49
2017-10-15T10:17:38.397Z,93.58
2017-10-15T10:18:47.239Z,93.19
2017-10-15T10:19:56.079Z,93.39
2017-10-15T10:21:04.924Z,93.49
2017-10-15T10:22:13.762Z,93.39
2017-10-15T10:23:22.599Z,93.49
2017-10-15T10:24:31.444Z,92.91
2017-10-15T10:25:40.299Z,92.24
2017-10-15T10:26:49.141Z,92.05
2017-10-15T10:27:57.988Z,91.75
2017-10-15T10:29:06.816Z,91.85
2017-10-15T10:30:15.651Z,92.33
2017-10-15T10:31:24.488Z,92.05
2017-10-15T10:32:33.325Z,92.52
2017-10-15T10:33:42.186Z,91.85
2017-10-15T10:34:51.024Z,92.05
2017-10-15T10:35:59.872Z,92.24
2017-10-15T10:37:08.701Z,92.14
2017-10-15T10:38:17.539Z,92.09
2017-10-15T10:39:26.389Z,92.43
2017-10-15T10:40:35.231Z,92.05
2017-10-15T10:41:44.406Z,91.71
2017-10-15T10:42:53.579Z,91.56
2017-10-15T10:44:02.433Z,91.8
2017-10-15T10:45:11.273Z,91.52
2017-10-15T10:46:20.452Z,91.32
2017-10-15T10:47:29.292Z,91.61
2017-10-15T10:48:38.130Z,91.32
2017-10-15T10:49:46.970Z,91.32
2017-10-15T10:50:55.808Z,91.42
2017-10-15T10:52:04.646Z,91.32
2017-10-15T10:53:13.484Z,91.32
2017-10-15T10:54:22.326Z,91.42
2017-10-15T10:55:31.166Z,91.13
2017-10-15T10:56:40.008Z,91.03
2017-10-15T10:57:48.844Z,90.75
2017-10-15T10:58:57.692Z,90.94
2017-10-15T11:00:06.531Z,90.45
2017-10-15T11:01:15.377Z,90.07
2017-10-15T11:02:24.213Z,90.36
2017-10-15T11:03:33.052Z,89.98
2017-10-15T11:04:41.894Z,90.07
2017-10-15T11:05:50.735Z,89.3
2017-10-15T11:06:59.580Z,89.5
2017-10-15T11:08:08.416Z,89.5
2017-10-15T11:09:17.257Z,89.5
2017-10-15T11:10:26.103Z,89.5
2017-10-15T11:11:34.949Z,89.64
2017-10-15T11:12:44.128Z,89.69
2017-10-15T11:13:52.966Z,89.83
2017-10-15T11:15:01.803Z,89.4
2017-10-15T11:16:10.645Z,89.98
2017-10-15T11:17:19.490Z,89.59
2017-10-15T11:18:28.329Z,89.4
2017-10-15T11:19:37.172Z,89.69
2017-10-15T11:20:46.009Z,89.5
2017-10-15T11:21:54.840Z,89.88
2017-10-15T11:23:03.685Z,89.59
2017-10-15T11:24:12.529Z,89.59
2017-10-15T11:25:21.370Z,89.98
2017-10-15T11:26:30.209Z,89.98
2017-10-15T11:27:39.053Z,89.98
2017-10-15T11:28:47.899Z,89.5
2017-10-15T11:29:56.747Z,89.5
2017-10-15T11:31:05.586Z,88.92
2017-10-15T11:32:14.427Z,89.21
2017-10-15T11:33:23.269Z,88.63
2017-10-15T11:34:32.122Z,88.67
2017-10-15T11:35:40.949Z,88.77
2017-10-15T11:36:49.788Z,88.48
2017-10-15T11:37:58.629Z,88.67
2017-10-15T11:39:07.481Z,88.48
2017-10-15T11:40:16.319Z,88.57
2017-10-15T11:41:25.166Z,88.39
2017-10-15T11:42:34.001Z,88.29
2017-10-15T11:43:42.839Z,88
2017-10-15T11:44:51.681Z,88.19
2017-10-15T11:46:00.521Z,87.81
2017-10-15T11:47:09.377Z,88.57
2017-10-15T11:48:18.219Z,88
2017-10-15T11:49:27.056Z,88.57
2017-10-15T11:50:35.899Z,88.57
2017-10-15T11:51:44.743Z,88.67
2017-10-15T11:52:53.575Z,88.39
2017-10-15T11:54:02.420Z,87.9
2017-10-15T11:55:11.257Z,88
2017-10-15T11:56:20.093Z,87.9
2017-10-15T11:57:28.936Z,87.95
2017-10-15T11:58:37.784Z,88.29
2017-10-15T11:59:46.618Z,87.71
2017-10-15T12:00:55.456Z,87.52
2017-10-15T12:02:04.307Z,88.48
2017-10-15T12:03:13.142Z,88.1
2017-10-15T12:04:21.986Z,88.29
2017-10-15T12:05:30.820Z,87.71
2017-10-15T12:06:39.663Z,88.33
2017-10-15T12:07:48.502Z,88
2017-10-15T12:08:57.340Z,88.43
2017-10-15T12:10:06.194Z,88.33
2017-10-15T12:11:15.030Z,87.66
2017-10-15T12:12:23.874Z,87.66
2017-10-15T12:13:32.820Z,88.33
2017-10-15T12:14:41.661Z,88.24
2017-10-15T12:15:50.568Z,88.14
2017-10-15T12:16:59.413Z,88.33
2017-10-15T12:18:08.251Z,88.43
2017-10-15T12:19:17.096Z,88.43
2017-10-15T12:20:25.938Z,87.66
2017-10-15T12:21:34.772Z,87.85
2017-10-15T12:22:43.617Z,87.76
2017-10-15T12:23:52.459Z,87.85
2017-10-15T12:25:01.299Z,87.85
2017-10-15T12:26:10.139Z,87.85
2017-10-15T12:27:18.976Z,87.76
2017-10-15T12:28:27.882Z,87.76
2017-10-15T12:29:36.725Z,88.14
2017-10-15T12:30:45.571Z,87.27
2017-10-15T12:31:54.761Z,87.66
2017-10-15T12:33:03.605Z,87.46
2017-10-15T12:34:12.444Z,87.37
2017-10-15T12:35:21.282Z,87.66
2017-10-15T12:36:30.127Z,87.66
2017-10-15T12:37:38.968Z,87.66
2017-10-15T12:38:47.808Z,87.46
2017-10-15T12:39:56.651Z,87.56
2017-10-15T12:41:05.494Z,87.46
2017-10-15T12:42:14.329Z,87.46
2017-10-15T12:43:23.177Z,87.27
2017-10-15T12:44:32.015Z,87.56
2017-10-15T12:45:40.859Z,87.37
2017-10-15T12:46:49.722Z,87.46
2017-10-15T12:47:58.744Z,87.27
2017-10-15T12:49:07.584Z,87.56
2017-10-15T12:50:16.423Z,87.18
2017-10-15T12:51:25.261Z,87.08
2017-10-15T12:52:34.108Z,86.6
2017-10-15T12:53:42.969Z,86.79
2017-10-15T12:54:52.040Z,87.08
2017-10-15T12:56:00.877Z,87.08
2017-10-15T12:57:09.915Z,86.99
2017-10-15T12:58:18.755Z,87.46
2017-10-15T12:59:27.595Z,87.27
2017-10-15T13:00:36.436Z,87.08
2017-10-15T13:01:45.443Z,87.46
2017-10-15T13:02:54.287Z,87.56
2017-10-15T13:04:03.486Z,87.56
2017-10-15T13:05:12.349Z,87.08
2017-10-15T13:06:21.273Z,87.46
2017-10-15T13:07:30.216Z,87.08
2017-10-15T13:08:39.053Z,86.99
2017-10-15T13:09:48.306Z,87.18
2017-10-15T13:10:57.269Z,87.08
2017-10-15T13:12:06.111Z,86.99
2017-10-15T13:13:14.955Z,86.99
2017-10-15T13:14:23.795Z,87.27
2017-10-15T13:15:32.634Z,87.66
2017-10-15T13:16:41.473Z,87.27
2017-10-15T13:17:50.313Z,87.08
2017-10-15T13:18:59.152Z,86.74
2017-10-15T13:20:07.988Z,86.51
2017-10-15T13:21:16.841Z,86.6
2017-10-15T13:22:25.691Z,86.51
2017-10-15T13:23:34.528Z,86.02
2017-10-15T13:24:43.366Z,86.02
2017-10-15T13:25:52.202Z,85.25
2017-10-15T13:27:01.048Z,85.16
2017-10-15T13:28:10.225Z,85.54
2017-10-15T13:29:19.062Z,85.25
2017-10-15T13:30:27.898Z,85.35
2017-10-15T13:31:36.741Z,85.54
2017-10-15T13:32:45.581Z,85.16
2017-10-15T13:33:54.418Z,84.67
2017-10-15T13:35:03.614Z,84.39
2017-10-15T13:36:12.450Z,84.67
2017-10-15T13:37:21.294Z,84.67
2017-10-15T13:38:30.132Z,84.39
2017-10-15T13:39:38.972Z,84.39
2017-10-15T13:40:47.819Z,84.48
2017-10-15T13:41:56.658Z,84.58
2017-10-15T13:43:05.499Z,84.29
2017-10-15T13:44:14.344Z,84.62
2017-10-15T13:45:23.190Z,84.67
2017-10-15T13:46:32.032Z,84.91
2017-10-15T13:47:40.874Z,84.97
2017-10-15T13:48:49.715Z,85.44
2017-10-15T13:49:58.557Z,85.35
2017-10-15T13:51:07.392Z,85.58
2017-10-15T13:52:16.232Z,85.54
2017-10-15T13:53:25.075Z,85.54
2017-10-15T13:54:33.917Z,85.35
2017-10-15T13:55:42.761Z,85.25
2017-10-15T13:56:51.599Z,85.16
2017-10-15T13:58:00.439Z,85.54
2017-10-15T13:59:09.282Z,85.06
2017-10-15T14:00:18.466Z,84.91
2017-10-15T14:01:27.521Z,85.06
2017-10-15T14:02:36.481Z,85.35
2017-10-15T14:03:45.361Z,85.35
2017-10-15T14:04:54.285Z,85.44
2017-10-15T14:06:03.686Z,85.54
2017-10-15T14:07:12.588Z,85.64
2017-10-15T14:08:21.817Z,84.97
2017-10-15T14:09:30.799Z,84.87
2017-10-15T14:10:39.929Z,84.97
2017-10-15T14:11:48.783Z,84.97
2017-10-15T14:12:57.632Z,84.97
2017-10-15T14:14:06.473Z,85.44
2017-10-15T14:15:15.416Z,85.25
2017-10-15T14:16:24.565Z,85.64
2017-10-15T14:17:33.648Z,85.25
2017-10-15T14:18:42.879Z,85.64
2017-10-15T14:19:51.852Z,85.64
2017-10-15T14:21:01.236Z,85.93
2017-10-15T14:22:10.214Z,85.93
2017-10-15T14:23:19.079Z,85.64
2017-10-15T14:24:27.975Z,85.64
2017-10-15T14:25:36.949Z,85.44
2017-10-15T14:26:45.935Z,85.44
2017-10-15T14:27:54.893Z,85.83
2017-10-15T14:29:03.799Z,85.74
2017-10-15T14:30:13.110Z,85.25
2017-10-15T14:31:22.026Z,85.06
2017-10-15T14:32:30.967Z,85.54
2017-10-15T14:33:39.800Z,85.54
2017-10-15T14:34:48.806Z,85.06
2017-10-15T14:35:57.650Z,85.06
2017-10-15T14:37:06.488Z,85.44
2017-10-15T14:38:15.330Z,85.25
2017-10-15T14:39:24.539Z,85.44
2017-10-15T14:40:33.767Z,85.64
2017-10-15T14:41:42.610Z,85.35
2017-10-15T14:42:51.447Z,85.54
2017-10-15T14:44:00.287Z,85.54
2017-10-15T14:45:09.132Z,85.25
2017-10-15T14:46:17.966Z,85.74
2017-10-15T14:47:26.803Z,85.54
2017-10-15T14:48:35.640Z,85.74